Bitte die für das Benutzerkonto hinterlegte E-Mail-Adresse eingeben. Der Benutzername wird dann an diese E-Mail-Adresse geschickt.

WebCam

  
Kamera Halle
Kamera Vorfeld

GPS Triangle WM Sports Class

AeroClub Göppingen-Salach e.V.
Ausrichter der Modellflug
GPS Triangle-WM 2020

Wetter EDDS

METAR

EDDS 301820Z 02007KT CAVOK 03/M10 Q1024 NOSIG =
EDDS 301700Z 3018/3118 02008KT CAVOK BECMG 3020/3022 VRB03KT BECMG 3106/3108 05006KT


TAF

EDDS 301700Z 3018/3118 02008KT CAVOK BECMG 3020/3022 VRB03KT BECMG 3106/3108 05006KT =


SR/SS

05:02 / 17:49 UTC
(EDSO 30-03-2020)